Time;durP1;ratioP1;P1;durP2;ratioP2;P2;SDS_P1;SDS_P2;PMS_P1;PMS_P2;Temp;Humidity;BMP_temperature;BMP_pressure;BME280_temperature;BME280_humidity;BME280_pressure;Samples;Min_cycle;Max_cycle;Signal;HPM_P1;HPM_P2
2021/06/25 00:02:27;;;;;;;5.28;3.12;;;;;;;18.23;86.56;97906.31;1716711;83;20964;-83
2021/06/25 00:04:53;;;;;;;5.00;3.50;;;;;;;18.24;86.08;97901.86;1690037;85;20933;-83
2021/06/25 00:07:19;;;;;;;7.12;3.50;;;;;;;18.17;86.21;97905.69;1716922;83;21423;-83
2021/06/25 00:09:45;;;;;;;7.80;3.45;;;;;;;18.17;86.13;97914.48;1680632;85;21025;-83
2021/06/25 00:12:11;;;;;;;7.55;3.90;;;;;;;18.14;85.99;97915.95;1673091;85;21104;-89
2021/06/25 00:14:41;;;;;;;7.08;2.90;;;;;;;18.16;85.96;97916.99;1672984;85;20994;-83
2021/06/25 00:17:07;;;;;;;4.33;3.50;;;;;;;18.19;85.74;97908.09;1673325;85;21033;-83
2021/06/25 00:19:33;;;;;;;7.25;2.90;;;;;;;18.20;85.35;97907.78;1673099;85;21143;-83
2021/06/25 00:21:59;;;;;;;6.20;3.52;;;;;;;18.18;85.36;97896.89;1673365;85;21049;-83
2021/06/25 00:24:25;;;;;;;5.97;3.47;;;;;;;18.17;85.06;97910.37;1673063;85;21590;-86
2021/06/25 00:26:59;;;;;;;5.05;2.95;;;;;;;18.18;85.08;97895.52;1672837;85;20915;-82
2021/06/25 00:29:20;;;;;;;6.00;2.83;;;;;;;18.20;85.84;97892.70;1647390;85;21430;-83
2021/06/25 00:31:50;;;;;;;7.25;3.40;;;;;;;18.23;85.05;97885.17;1672574;85;21001;-89
2021/06/25 00:34:16;;;;;;;6.07;3.90;;;;;;;18.25;86.02;97882.09;1673538;85;21107;-83
2021/06/25 00:36:42;;;;;;;6.55;3.17;;;;;;;18.14;86.35;97892.65;1673136;85;21001;-89
2021/06/25 00:39:08;;;;;;;5.67;3.00;;;;;;;18.11;85.98;97888.38;1673221;85;21422;-83
2021/06/25 00:41:34;;;;;;;7.80;3.80;;;;;;;18.06;85.67;97889.96;1673382;85;20945;-89
2021/06/25 00:44:00;;;;;;;9.68;3.40;;;;;;;18.01;87.78;97886.26;1673361;85;20942;-84
2021/06/25 00:46:32;;;;;;;5.08;3.30;;;;;;;17.94;86.06;97872.27;1673186;85;20997;-89
2021/06/25 00:48:59;;;;;;;6.12;3.10;;;;;;;17.93;85.82;97883.00;1699265;84;20980;-83
2021/06/25 00:51:25;;;;;;;6.35;3.00;;;;;;;17.90;85.66;97878.75;1702319;84;21483;-83
2021/06/25 00:53:54;;;;;;;4.50;3.15;;;;;;;17.88;85.44;97868.13;1681496;85;20926;-83
2021/06/25 00:56:20;;;;;;;4.83;2.47;;;;;;;17.94;85.37;97872.83;1681377;84;21025;-89
2021/06/25 00:58:46;;;;;;;8.08;5.00;;;;;;;18.01;85.19;97869.01;1681511;84;21452;-83
2021/06/25 01:01:12;;;;;;;8.08;3.00;;;;;;;17.99;86.93;97870.72;1681101;85;21368;-83
2021/06/25 01:03:40;;;;;;;6.97;3.62;;;;;;;17.98;85.45;97879.28;1681593;84;21024;-83
2021/06/25 01:06:06;;;;;;;7.33;3.93;;;;;;;17.89;85.37;97869.73;1681462;85;21404;-88
2021/06/25 01:08:32;;;;;;;9.33;3.70;;;;;;;17.75;85.40;97858.19;1656133;85;20965;-83
2021/06/25 01:10:58;;;;;;;5.20;3.65;;;;;;;17.67;85.54;97859.00;1707813;82;21025;-83
2021/06/25 01:13:25;;;;;;;9.43;3.30;;;;;;;17.61;86.09;97850.19;1710788;84;21714;-88
2021/06/25 01:15:51;;;;;;;7.17;3.35;;;;;;;17.61;86.79;97841.16;1710201;83;20942;-83
2021/06/25 01:18:17;;;;;;;4.75;2.62;;;;;;;17.60;86.15;97838.96;1710465;84;21025;-83
2021/06/25 01:20:43;;;;;;;7.70;2.70;;;;;;;17.55;86.29;97837.80;1710607;84;21354;-83
2021/06/25 01:23:11;;;;;;;6.42;3.33;;;;;;;17.52;86.01;97833.52;1710652;82;21390;-88
2021/06/25 01:25:38;;;;;;;8.55;3.40;;;;;;;17.48;85.90;97830.65;1710202;84;21239;-88
2021/06/25 01:28:08;;;;;;;6.65;3.10;;;;;;;17.47;86.25;97824.38;1710346;84;20962;-83
2021/06/25 01:30:40;;;;;;;6.12;3.00;;;;;;;17.45;85.77;97811.58;1710161;83;20973;-88
2021/06/25 01:33:09;;;;;;;7.12;3.22;;;;;;;17.51;85.81;97810.00;1710295;83;21037;-88
2021/06/25 01:35:35;;;;;;;6.45;3.20;;;;;;;17.59;85.73;97816.81;1710410;84;21040;-82
2021/06/25 01:38:01;;;;;;;6.87;3.50;;;;;;;17.63;85.92;97820.52;1710344;83;21117;-89
2021/06/25 01:40:27;;;;;;;6.15;3.20;;;;;;;17.64;85.96;97828.16;1710619;83;20858;-89
2021/06/25 01:43:03;;;;;;;;;;;;;;;;;;;;;
2021/06/25 01:45:23;;;;;;;7.20;3.08;;;;;;;17.61;85.57;97848.02;1708765;84;21029;-89
2021/06/25 01:47:50;;;;;;;4.55;2.67;;;;;;;17.55;86.36;97856.97;1710286;84;21484;-89
2021/06/25 01:50:19;;;;;;;3.98;2.75;;;;;;;17.52;86.41;97861.75;1710162;84;21313;-83
2021/06/25 01:52:55;;;;;;;7.15;2.98;;;;;;;17.55;86.38;97873.41;1733784;82;20977;-88
2021/06/25 01:55:23;;;;;;;5.97;2.90;;;;;;;17.57;86.88;97870.33;1710060;82;21651;-83
2021/06/25 01:57:49;;;;;;;12.33;3.95;;;;;;;17.58;86.18;97870.56;1709937;84;21438;-88
2021/06/25 02:00:20;;;;;;;6.37;3.10;;;;;;;17.61;85.79;97866.63;1710397;83;20880;-88
2021/06/25 02:02:46;;;;;;;6.00;4.12;;;;;;;17.69;85.59;97875.94;1710361;83;21163;-87
2021/06/25 02:05:14;;;;;;;7.90;3.60;;;;;;;17.72;85.49;97872.56;1710331;83;21060;-88
2021/06/25 02:07:40;;;;;;;11.30;3.72;;;;;;;17.68;85.61;97868.26;1710051;83;20973;-88
2021/06/25 02:10:09;;;;;;;5.05;2.47;;;;;;;17.72;85.37;97861.59;1706668;84;21054;-88
2021/06/25 02:12:37;;;;;;;;;;;;;;;17.70;86.29;97867.98;1728087;83;21045;-88
2021/06/25 02:15:08;;;;;;;5.90;2.98;;;;;;;17.69;86.39;97874.56;1702449;84;21724;-82
2021/06/25 02:17:34;;;;;;;18.02;2.70;;;;;;;17.63;86.13;97881.36;1701978;84;21343;-88
2021/06/25 02:20:05;;;;;;;7.05;2.65;;;;;;;17.68;85.74;97884.70;1702020;84;21033;-88
2021/06/25 02:22:48;;;;;;;7.00;2.65;;;;;;;17.71;85.44;97882.72;1701879;84;21410;-83
2021/06/25 02:25:02;;;;;;;7.10;2.67;;;;;;;17.64;85.31;97880.22;1699256;83;20974;-83
2021/06/25 02:27:28;;;;;;;6.60;3.20;;;;;;;17.61;85.50;97872.09;1701769;84;21039;-83
2021/06/25 02:29:56;;;;;;;11.57;3.58;;;;;;;17.61;85.13;97875.41;1702005;84;21013;-83
2021/06/25 02:32:24;;;;;;;9.88;3.00;;;;;;;17.64;85.00;97893.35;1683808;84;20982;-88
2021/06/25 02:35:01;;;;;;;6.97;3.00;;;;;;;17.61;85.42;97903.61;1684611;84;21034;-83
2021/06/25 02:37:22;;;;;;;5.45;2.70;;;;;;;17.60;84.85;97914.30;1722139;82;21350;-83
2021/06/25 02:39:50;;;;;;;7.12;2.80;;;;;;;17.41;85.94;97922.91;1701973;83;21014;-89
2021/06/25 02:42:18;;;;;;;7.17;3.67;;;;;;;17.23;86.33;97946.55;1701788;84;21264;-89
2021/06/25 02:44:46;;;;;;;8.28;3.37;;;;;;;17.30;85.56;97975.05;1700561;83;21449;-83
2021/06/25 02:47:16;;;;;;;5.80;3.17;;;;;;;17.15;86.48;97996.08;1701644;84;20930;-83
2021/06/25 02:49:43;;;;;;;5.87;3.83;;;;;;;17.06;87.63;97989.23;1697462;84;20946;-88
2021/06/25 02:52:13;;;;;;;7.40;2.98;;;;;;;17.03;88.48;97965.83;1701548;83;20967;-89
2021/06/25 02:54:46;;;;;;;4.65;3.35;;;;;;;17.06;88.16;97937.23;1700260;84;21013;-90
2021/06/25 02:57:15;;;;;;;5.08;3.30;;;;;;;17.07;88.49;97931.99;1698811;84;20930;-89
2021/06/25 02:59:41;;;;;;;5.15;3.17;;;;;;;17.15;87.16;97931.18;1701685;83;21045;-83
2021/06/25 03:02:09;;;;;;;7.25;3.08;;;;;;;17.16;86.71;97931.98;1683847;84;21033;-83
2021/06/25 03:04:35;;;;;;;5.22;3.25;;;;;;;17.18;86.08;97929.18;1701875;84;21078;-84
2021/06/25 03:07:06;;;;;;;3.47;2.73;;;;;;;17.11;86.73;97926.13;1702095;83;20907;-89
2021/06/25 03:09:35;;;;;;;6.83;3.55;;;;;;;17.16;85.98;97920.46;1702007;82;20986;-82
2021/06/25 03:14:49;;;;;;;;;;;;;;;;;;;;;
2021/06/25 03:17:12;;;;;;;7.78;3.80;;;;;;;17.16;85.64;97887.61;1705822;84;22861;-83
2021/06/25 03:19:46;;;;;;;5.17;3.72;;;;;;;17.24;85.51;97883.25;1709042;82;20914;-89
2021/06/25 03:22:18;;;;;;;8.58;3.87;;;;;;;17.32;85.31;97882.98;1704237;84;20922;-89
2021/06/25 03:24:49;;;;;;;6.72;4.65;;;;;;;17.40;85.23;97884.33;1710086;83;21412;-83
2021/06/25 03:27:25;;;;;;;;;;;;;;;;;;;;;
2021/06/25 03:30:00;;;;;;;;;;;;;;;;;;;;;
2021/06/25 03:32:32;;;;;;;;;;;;;;;;;;;;;
2021/06/25 03:34:47;;;;;;;9.80;3.65;;;;;;;17.36;85.13;97871.63;1587949;88;21791;-89
2021/06/25 03:37:24;;;;;;;5.90;3.40;;;;;;;17.40;85.00;97870.63;1594751;90;21151;-89
2021/06/25 03:39:46;;;;;;;7.58;4.53;;;;;;;17.46;84.95;97864.42;1593804;90;20980;-89
2021/06/25 03:42:21;;;;;;;9.80;3.70;;;;;;;17.48;84.82;97874.48;1615234;85;21413;-89
2021/06/25 03:44:55;;;;;;;10.58;3.65;;;;;;;17.47;84.83;97874.24;1669765;85;21009;-90
2021/06/25 03:47:28;;;;;;;11.55;3.90;;;;;;;17.41;84.83;97878.28;1714191;81;21393;-90
2021/06/25 03:50:08;;;;;;;;;;;;;;;;;;;;;
2021/06/25 03:52:35;;;;;;;12.15;3.55;;;;;;;17.38;85.48;97869.36;1734201;81;21027;-84
2021/06/25 03:55:11;;;;;;;6.10;3.55;;;;;;;17.36;85.93;97871.63;1755509;81;21152;-83
2021/06/25 03:57:47;;;;;;;;;;;;;;;;;;;;;
2021/06/25 04:00:16;;;;;;;8.45;3.50;;;;;;;17.30;86.21;97858.67;1683233;85;21049;-83
2021/06/25 04:03:00;;;;;;;;;;;;;;;;;;;;;
2021/06/25 04:05:26;;;;;;;5.58;2.92;;;;;;;17.38;86.59;97855.67;1682206;84;21001;-90
2021/06/25 04:08:05;;;;;;;8.90;3.58;;;;;;;17.39;86.04;97852.59;1684247;85;21053;-90
2021/06/25 04:10:37;;;;;;;8.73;3.50;;;;;;;17.37;85.83;97854.87;1685548;84;21045;-89
2021/06/25 04:13:06;;;;;;;6.53;3.37;;;;;;;17.39;85.63;97847.69;1677334;85;20954;-83
2021/06/25 04:15:42;;;;;;;;;;;;;;;;;;;;;
2021/06/25 04:18:05;;;;;;;11.25;3.85;;;;;;;17.37;85.85;97836.27;1681820;83;20914;-90
2021/06/25 04:20:31;;;;;;;8.23;2.98;;;;;;;17.39;85.68;97840.84;1707128;83;21803;-83
2021/06/25 04:23:00;;;;;;;13.63;3.57;;;;;;;17.39;85.55;97832.62;1753154;81;20996;-82
2021/06/25 04:25:32;;;;;;;8.25;3.30;;;;;;;17.37;85.71;97826.68;1729797;80;20972;-82
2021/06/25 04:28:04;;;;;;;7.40;3.92;;;;;;;17.38;85.63;97826.91;1664090;86;20993;-90
2021/06/25 04:30:42;;;;;;;8.63;3.10;;;;;;;17.40;86.13;97828.75;1664305;86;21015;-89
2021/06/25 04:33:07;;;;;;;5.37;2.77;;;;;;;17.50;85.63;97818.80;1661203;85;21124;-90
2021/06/25 04:35:36;;;;;;;7.15;3.58;;;;;;;17.57;85.59;97816.91;1603754;89;21065;-90
2021/06/25 04:38:15;;;;;;;8.83;3.67;;;;;;;17.68;85.51;97819.51;1549440;90;21225;-88
2021/06/25 04:40:45;;;;;;;5.78;2.80;;;;;;;17.81;85.48;97819.08;1547341;92;21180;-82
2021/06/25 04:43:15;;;;;;;7.70;2.90;;;;;;;17.98;85.19;97811.55;1476039;95;21105;-82
2021/06/25 04:45:46;;;;;;;;;;;;;;;18.15;84.81;97814.73;1527957;93;21349;-84
2021/06/25 04:48:24;;;;;;;10.58;3.25;;;;;;;18.23;83.60;97805.64;1482783;96;20529;-84
2021/06/25 04:50:58;;;;;;;4.28;3.25;;;;;;;18.36;83.53;97809.80;1466430;96;21014;-83
2021/06/25 04:56:10;;;;;;;;;;;;;;;;;;;;;
2021/06/25 07:02:28;;;;;;;;;;;;;;;;;;;;;
2021/06/25 08:57:58;;;;;;;6.35;4.80;;;;;;;22.88;66.16;97935.22;1401615;99;21072;-89
2021/06/25 09:01:43;;;;;;;;;;;;;;;;;;;;;
2021/06/25 10:22:47;;;;;;;;;;;;;;;;;;;;;
2021/06/25 10:25:29;;;;;;;;;;;;;;;;;;;;;
2021/06/25 10:28:55;;;;;;;;;;;;;;;;;;;;;
2021/06/25 10:56:27;;;;;;;;;;;;;;;;;;;;;
2021/06/25 10:59:22;;;;;;;18.82;11.78;;;;;;;21.23;73.34;98019.09;1518986;94;21028;-88
2021/06/25 11:40:04;;;;;;;;;;;;;;;;;;;;;
2021/06/25 11:42:54;;;;;;;16.42;14.58;;;;;;;19.91;84.03;98064.37;1594575;89;21005;-88
2021/06/25 11:45:47;;;;;;;;;;;;;;;;;;;;;
2021/06/25 13:55:24;;;;;;;24.50;19.55;;;;;;;21.51;72.43;98058.52;1650791;83;21087;-84
2021/06/25 13:58:33;;;;;;;;;;;;;;;;;;;;;
2021/06/25 14:01:03;;;;;;;26.12;19.87;;;;;;;21.08;74.52;98064.12;1541612;91;20997;-87
2021/06/25 17:02:39;;;;;;;30.23;22.40;;;;;;;21.47;70.92;98041.09;1704178;82;20939;-89
2021/06/25 17:05:22;;;;;;;;;;;;;;;;;;;;;
2021/06/25 17:07:53;;;;;;;;;;;;;;;;;;;;;
2021/06/25 17:10:19;;;;;;;27.05;21.17;;;;;;;21.39;71.22;98065.46;1687654;83;21532;-87
2021/06/25 17:13:08;;;;;;;;;;;;;;;;;;;;;
2021/06/25 17:15:37;;;;;;;;;;;;;;;;;;;;;
2021/06/25 17:18:02;;;;;;;25.60;20.75;;;;;;;21.23;71.66;98069.48;1708469;82;20997;-83
2021/06/25 17:20:44;;;;;;;;;;;;;;;;;;;;;
2021/06/25 17:25:54;;;;;;;;;;;;;;;;;;;;;
2021/06/25 17:28:13;;;;;;;46.33;36.45;;;;;;;21.19;72.26;98085.09;1472085;95;21042;-84
2021/06/25 17:30:51;;;;;;;30.52;21.62;;;;;;;21.18;72.96;98076.60;1511887;93;21017;-86
2021/06/25 17:33:22;;;;;;;26.55;22.42;;;;;;;21.11;72.81;98071.70;1453664;97;21278;-88
2021/06/25 17:36:07;;;;;;;30.55;24.07;;;;;;;21.09;72.74;98078.69;1428258;99;21126;-83
2021/06/25 17:38:32;;;;;;;31.55;23.35;;;;;;;21.10;72.57;98081.09;1506638;93;21022;-89
2021/06/25 17:41:06;;;;;;;33.60;25.48;;;;;;;21.03;72.68;98089.16;1493540;94;20981;-84
2021/06/25 17:43:44;;;;;;;27.77;23.73;;;;;;;21.04;72.70;98089.97;1511811;93;21605;-84
2021/06/25 17:46:21;;;;;;;;;;;;;;;;;;;;;
2021/06/25 17:48:55;;;;;;;;;;;;;;;;;;;;;
2021/06/25 17:51:42;;;;;;;;;;;;;;;;;;;;;
2021/06/25 17:53:57;;;;;;;28.27;23.00;;;;;;;21.02;73.15;98075.17;1640518;82;21346;-84
2021/06/25 17:56:22;;;;;;;27.48;23.85;;;;;;;20.95;73.42;98071.39;1693131;82;20930;-90
2021/06/25 17:59:00;;;;;;;;;;;;;;;;;;;;;
2021/06/25 18:01:24;;;;;;;31.77;25.02;;;;;;;20.74;73.94;98071.50;1702387;82;20926;-90
2021/06/25 18:04:04;;;;;;;;;;;;;;;;;;;;;
2021/06/25 18:06:38;;;;;;;;;;;;;;;;;;;;;
2021/06/25 18:09:04;;;;;;;;;;;;;;;;;;;;;
2021/06/25 18:11:29;;;;;;;26.48;22.65;;;;;;;20.54;75.26;98070.48;1531644;91;21089;-90
2021/06/25 18:16:42;;;;;;;30.75;22.02;;;;;;;20.51;76.04;98071.98;1587795;88;21091;-90
2021/06/25 18:19:17;;;;;;;;;;;;;;;;;;;;;
2021/06/25 18:21:48;;;;;;;;;;;;;;;;;;;;;
2021/06/25 18:24:19;;;;;;;25.40;19.98;;;;;;;20.29;76.92;98087.51;1617376;88;21081;-90
2021/06/25 18:26:46;;;;;;;31.15;21.48;;;;;;;20.25;76.56;98076.94;1601639;85;21123;-84
2021/06/25 18:29:21;;;;;;;33.00;22.58;;;;;;;20.17;76.99;98073.75;1597828;89;21532;-83
2021/06/25 18:31:58;;;;;;;;;;;;;;;;;;;;;
2021/06/25 18:34:27;;;;;;;27.45;22.65;;;;;;;20.12;76.73;98066.50;1575394;89;21401;-90
2021/06/25 18:37:04;;;;;;;;;;;;;;;;;;;;;
2021/06/25 18:39:30;;;;;;;27.15;21.80;;;;;;;19.96;77.63;98062.22;1555470;89;21130;-90
2021/06/25 18:41:59;;;;;;;31.77;25.97;;;;;;;19.85;77.97;98065.18;1548369;91;21139;-89
2021/06/25 18:44:47;;;;;;;;;;;;;;;;;;;;;
2021/06/25 18:47:11;;;;;;;26.05;20.70;;;;;;;19.89;78.05;98054.30;1590993;88;21456;-83
2021/06/25 18:49:40;;;;;;;31.42;22.20;;;;;;;19.92;78.45;98049.52;1525578;94;21548;-89
2021/06/25 18:52:20;;;;;;;;;;;;;;;;;;;;;
2021/06/25 18:54:47;;;;;;;28.83;25.10;;;;;;;19.91;78.48;98055.58;1469243;96;21182;-89
2021/06/25 18:57:30;;;;;;;;;;;;;;;;;;;;;
2021/06/25 19:00:04;;;;;;;;;;;;;;;;;;;;;
2021/06/25 19:02:44;;;;;;;;;;;;;;;;;;;;;
2021/06/25 19:05:21;;;;;;;;;;;;;;;;;;;;;
2021/06/25 19:07:39;;;;;;;27.85;23.73;;;;;;;19.77;79.06;98092.19;1436994;98;22006;-89
2021/06/25 19:10:22;;;;;;;;;;;;;;;;;;;;;
2021/06/25 19:12:48;;;;;;;24.18;20.20;;;;;;;19.70;79.08;98086.43;1569717;84;20974;-82
2021/06/25 19:15:30;;;;;;;;;;;;;;;;;;;;;
2021/06/25 19:17:52;;;;;;;25.97;19.75;;;;;;;19.62;79.07;98081.81;1598272;89;20971;-82
2021/06/25 19:20:36;;;;;;;;;;;;;;;;;;;;;
2021/06/25 20:01:39;;;;;;;328.30;151.90;;;;;;;18.32;85.26;98077.11;1675125;84;21322;-90
2021/06/25 20:04:25;;;;;;;;;;;;;;;;;;;;;
2021/06/25 20:06:57;;;;;;;;;;;;;;;;;;;;;
2021/06/25 20:09:19;;;;;;;291.63;169.70;;;;;;;18.14;84.13;98092.02;1583470;89;21072;-89
2021/06/25 20:11:49;;;;;;;251.40;159.43;;;;;;;18.04;84.37;98093.17;1578842;90;21439;-83
2021/06/25 20:14:38;;;;;;;;;;;;;;;;;;;;;
2021/06/25 20:17:13;;;;;;;;;;;;;;;;;;;;;
2021/06/25 20:24:54;;;;;;;;;;;;;;;;;;;;;
2021/06/25 20:27:29;;;;;;;;;;;;;;;;;;;;;
2021/06/25 20:29:54;;;;;;;26.17;20.12;;;;;;;17.70;85.09;98072.92;1358079;104;21140;-83
2021/06/25 20:32:28;;;;;;;32.73;23.25;;;;;;;17.79;84.64;98087.18;1359702;104;21086;-90
2021/06/25 20:35:06;;;;;;;30.02;23.60;;;;;;;17.82;84.51;98092.80;1363750;101;21193;-90
2021/06/25 20:37:35;;;;;;;29.75;23.45;;;;;;;17.81;84.38;98093.94;1416678;99;21131;-83
2021/06/25 20:40:22;;;;;;;;;;;;;;;;;;;;;
2021/06/25 20:42:56;;;;;;;;;;;;;;;;;;;;;
2021/06/25 20:45:28;;;;;;;;;;;;;;;;;;;;;
2021/06/25 20:47:52;;;;;;;25.40;21.05;;;;;;;18.03;85.65;98089.63;1333704;105;21422;-89
2021/06/25 20:50:20;;;;;;;28.15;21.70;;;;;;;18.04;85.82;98097.28;1319617;105;21156;-90
2021/06/25 20:52:53;;;;;;;27.45;21.42;;;;;;;18.01;85.29;98093.80;1375428;104;21103;-90
2021/06/25 20:55:36;;;;;;;;;;;;;;;;;;;;;
2021/06/25 20:58:06;;;;;;;;;;;;;;;;;;;;;
2021/06/25 21:00:40;;;;;;;;;;;;;;;;;;;;;
2021/06/25 21:03:17;;;;;;;;;;;;;;;;;;;;;
2021/06/25 21:05:46;;;;;;;;;;;;;;;;;;;;;
2021/06/25 21:08:08;;;;;;;31.60;21.73;;;;;;;18.00;85.60;98112.77;1397449;100;21133;-89
2021/06/25 21:10:52;;;;;;;;;;;;;;;;;;;;;
2021/06/25 21:13:33;;;;;;;;;;;;;;;;;;;;;
2021/06/25 21:16:28;;;;;;;;;;;;;;;;;;;;;
2021/06/25 21:18:56;;;;;;;;;;;;;;;;;;;;;
2021/06/25 21:23:48;;;;;;;;;;;;;;;;;;;;;
2021/06/25 21:26:13;;;;;;;;;;;;;;;;;;;;;
2021/06/25 21:28:50;;;;;;;;;;;;;;;;;;;;;
2021/06/25 21:31:26;;;;;;;;;;;;;;;;;;;;;
2021/06/25 21:33:52;;;;;;;34.30;22.13;;;;;;;18.34;84.36;98098.14;1545899;84;20914;-90
2021/06/25 21:36:26;;;;;;;27.37;22.45;;;;;;;18.38;84.27;98097.75;1626638;84;21051;-90
2021/06/25 21:39:01;;;;;;;27.93;21.90;;;;;;;18.31;83.86;98106.47;1674687;85;20989;-82
2021/06/25 21:41:45;;;;;;;;;;;;;;;;;;;;;
2021/06/25 21:44:32;;;;;;;;;;;;;;;;;;;;;
2021/06/25 21:46:46;;;;;;;26.00;22.17;;;;;;;18.27;83.80;98117.84;1567067;90;20999;-88
2021/06/25 21:49:18;;;;;;;28.75;23.15;;;;;;;18.21;83.84;98106.84;1571584;91;21529;-89
2021/06/25 21:51:59;;;;;;;;;;;;;;;;;;;;;
2021/06/25 21:54:38;;;;;;;;;;;;;;;;;;;;;
2021/06/25 21:57:05;;;;;;;;;;;;;;;;;;;;;
2021/06/25 21:59:37;;;;;;;;;;;;;;;;;;;;;
2021/06/25 22:02:17;;;;;;;;;;;;;;;;;;;;;
2021/06/25 22:04:33;;;;;;;29.30;22.17;;;;;;;17.87;85.73;98105.55;1477523;95;21283;-82
2021/06/25 22:07:03;;;;;;;31.33;22.07;;;;;;;17.83;85.68;98105.38;1494445;94;21088;-89
2021/06/25 22:09:45;;;;;;;;;;;;;;;;;;;;;
2021/06/25 22:12:07;;;;;;;26.20;20.23;;;;;;;17.70;85.61;98133.20;1450341;97;21084;-82
2021/06/25 22:14:36;;;;;;;;;;;;;;;17.62;85.79;98138.66;1459002;98;21804;-89
2021/06/25 22:17:10;;;;;;;26.40;19.62;;;;;;;17.61;85.94;98141.16;1456851;97;20184;-82
2021/06/25 22:19:36;;;;;;;28.10;20.62;;;;;;;17.56;86.01;98139.38;1412230;101;21531;-90
2021/06/25 22:22:06;;;;;;;30.25;20.65;;;;;;;17.51;86.72;98138.16;1454284;97;21082;-83
2021/06/25 22:25:01;;;;;;;;;;;;;;;;;;;;;
2021/06/25 22:27:26;;;;;;;29.55;21.57;;;;;;;17.56;86.67;98128.42;1481383;96;21018;-83
2021/06/25 22:29:51;;;;;;;26.90;20.85;;;;;;;17.61;86.97;98122.79;1507731;93;20955;-81
2021/06/25 22:32:32;;;;;;;;;;;;;;;;;;;;;
2021/06/25 22:34:55;;;;;;;27.17;22.22;;;;;;;17.67;87.00;98099.55;1524640;92;20998;-90
2021/06/25 22:37:36;;;;;;;;;;;;;;;;;;;;;
2021/06/25 22:40:12;;;;;;;;;;;;;;;;;;;;;
2021/06/25 22:42:34;;;;;;;31.23;22.17;;;;;;;17.81;88.03;98105.47;1572651;89;20973;-90
2021/06/25 22:45:12;;;;;;;;;;;;;;;;;;;;;
2021/06/25 22:47:30;;;;;;;27.32;21.27;;;;;;;17.81;87.24;98093.94;1597557;89;21080;-83
2021/06/25 22:50:02;;;;;;;30.90;21.97;;;;;;;17.81;87.18;98094.50;1601455;89;21544;-82
2021/06/25 22:52:40;;;;;;;;;;;;;;;;;;;;;
2021/06/25 22:55:03;;;;;;;29.18;23.62;;;;;;;17.78;86.42;98097.91;1646454;83;21040;-90
2021/06/25 22:57:33;;;;;;;28.45;22.32;;;;;;;17.76;86.31;98099.01;1675660;83;21131;-89
2021/06/25 23:00:00;;;;;;;30.50;20.88;;;;;;;17.82;86.55;98098.84;1665118;85;20934;-83
2021/06/25 23:02:29;;;;;;;31.42;22.55;;;;;;;17.91;86.37;98097.70;1658490;85;21070;-82
2021/06/25 23:04:59;;;;;;;27.22;23.00;;;;;;;18.00;86.53;98093.57;1678087;85;20998;-89
2021/06/25 23:07:36;;;;;;;;;;;;;;;;;;;;;
2021/06/25 23:10:10;;;;;;;;;;;;;;;;;;;;;
2021/06/25 23:12:35;;;;;;;37.15;22.98;;;;;;;17.94;85.95;98091.55;1655133;85;21383;-89
2021/06/25 23:15:01;;;;;;;28.07;22.25;;;;;;;17.93;85.92;98091.32;1689186;83;21385;-83
2021/06/25 23:17:31;;;;;;;25.48;20.40;;;;;;;17.93;85.78;98093.26;1657875;84;21047;-82
2021/06/25 23:20:09;;;;;;;;;;;;;;;;;;;;;
2021/06/25 23:22:29;;;;;;;24.67;19.65;;;;;;;17.92;86.20;98090.28;1684630;83;20985;-90
2021/06/25 23:24:57;;;;;;;27.70;21.50;;;;;;;17.94;85.87;98090.75;1677558;85;20977;-89
2021/06/25 23:27:23;;;;;;;30.08;20.60;;;;;;;17.97;85.70;98105.20;1659130;86;21537;-89
2021/06/25 23:29:52;;;;;;;25.45;18.82;;;;;;;17.98;85.50;98109.55;1688287;84;21464;-89
2021/06/25 23:32:24;;;;;;;28.05;20.20;;;;;;;18.00;85.38;98112.20;1676883;84;20908;-89
2021/06/25 23:34:56;;;;;;;26.40;20.45;;;;;;;17.98;85.41;98118.58;1687297;85;20921;-89
2021/06/25 23:37:23;;;;;;;26.60;21.75;;;;;;;18.03;85.27;98114.84;1632919;86;21062;-83
2021/06/25 23:39:55;;;;;;;23.80;20.70;;;;;;;17.96;85.29;98125.52;1684810;85;20914;-90
2021/06/25 23:42:29;;;;;;;;;;;;;;;;;;;;;
2021/06/25 23:44:51;;;;;;;26.67;21.60;;;;;;;18.01;85.37;98125.33;1684996;84;20965;-90
2021/06/25 23:47:19;;;;;;;30.35;21.35;;;;;;;18.02;85.50;98123.63;1677863;84;20870;-90
2021/06/25 23:49:46;;;;;;;31.60;22.62;;;;;;;18.02;86.21;98123.63;1687820;85;20957;-90
2021/06/25 23:52:12;;;;;;;29.40;20.27;;;;;;;18.05;85.73;98120.83;1678755;84;21008;-83
2021/06/25 23:54:38;;;;;;;26.27;20.97;;;;;;;18.05;85.91;98118.09;1688083;82;21304;-89
2021/06/25 23:57:08;;;;;;;28.03;22.43;;;;;;;18.03;86.78;98121.16;1688228;83;21010;-83
2021/06/25 23:59:34;;;;;;;27.80;22.87;;;;;;;18.06;86.26;98132.59;1677842;85;21060;-83
